sensor_id;sensor_type;location;lat;lon;timestamp;temperature;humidity
16823;DHT22;8528;49.976;11.858;2022-12-15T00:00:46;0.30;99.90
16823;DHT22;8528;49.976;11.858;2022-12-15T00:03:38;0.20;99.90
16823;DHT22;8528;49.976;11.858;2022-12-15T00:06:25;0.20;99.90
16823;DHT22;8528;49.976;11.858;2022-12-15T00:09:11;0.20;99.90
16823;DHT22;8528;49.976;11.858;2022-12-15T00:12:00;0.20;99.90
16823;DHT22;8528;49.976;11.858;2022-12-15T00:14:49;0.20;99.90
16823;DHT22;8528;49.976;11.858;2022-12-15T00:17:34;0.20;99.90
16823;DHT22;8528;49.976;11.858;2022-12-15T00:20:19;0.20;99.90
16823;DHT22;8528;49.976;11.858;2022-12-15T00:23:14;0.20;99.90
16823;DHT22;8528;49.976;11.858;2022-12-15T00:26:02;0.20;99.90
16823;DHT22;8528;49.976;11.858;2022-12-15T00:28:53;0.20;99.90
16823;DHT22;8528;49.976;11.858;2022-12-15T00:31:41;0.20;99.90
16823;DHT22;8528;49.976;11.858;2022-12-15T00:34:27;0.20;99.90
16823;DHT22;8528;49.976;11.858;2022-12-15T00:37:12;0.20;99.90
16823;DHT22;8528;49.976;11.858;2022-12-15T00:39:57;0.20;99.90
16823;DHT22;8528;49.976;11.858;2022-12-15T00:42:32;0.20;99.90
16823;DHT22;8528;49.976;11.858;2022-12-15T00:45:00;0.20;99.90
16823;DHT22;8528;49.976;11.858;2022-12-15T00:47:31;0.20;99.90
16823;DHT22;8528;49.976;11.858;2022-12-15T00:49:58;0.20;99.90
16823;DHT22;8528;49.976;11.858;2022-12-15T00:52:47;0.20;99.90
16823;DHT22;8528;49.976;11.858;2022-12-15T00:55:38;0.20;99.90
16823;DHT22;8528;49.976;11.858;2022-12-15T00:58:24;0.10;99.90
16823;DHT22;8528;49.976;11.858;2022-12-15T01:01:10;0.20;99.90
16823;DHT22;8528;49.976;11.858;2022-12-15T01:04:03;0.10;99.90
16823;DHT22;8528;49.976;11.858;2022-12-15T01:06:54;0.20;99.90
16823;DHT22;8528;49.976;11.858;2022-12-15T01:09:48;0.20;99.90
16823;DHT22;8528;49.976;11.858;2022-12-15T01:12:36;0.20;99.90
16823;DHT22;8528;49.976;11.858;2022-12-15T01:15:24;0.10;99.90
16823;DHT22;8528;49.976;11.858;2022-12-15T01:18:09;0.10;99.90
16823;DHT22;8528;49.976;11.858;2022-12-15T01:21:05;0.10;99.90
16823;DHT22;8528;49.976;11.858;2022-12-15T01:23:37;0.10;99.90
16823;DHT22;8528;49.976;11.858;2022-12-15T01:26:11;0.10;99.90
16823;DHT22;8528;49.976;11.858;2022-12-15T01:28:41;0.10;99.90
16823;DHT22;8528;49.976;11.858;2022-12-15T01:31:11;0.10;99.90
16823;DHT22;8528;49.976;11.858;2022-12-15T01:33:38;0.10;99.90
16823;DHT22;8528;49.976;11.858;2022-12-15T01:36:05;0.10;99.90
16823;DHT22;8528;49.976;11.858;2022-12-15T01:38:35;0.10;99.90
16823;DHT22;8528;49.976;11.858;2022-12-15T01:41:05;0.10;99.90
16823;DHT22;8528;49.976;11.858;2022-12-15T01:43:35;0.10;99.90
16823;DHT22;8528;49.976;11.858;2022-12-15T01:46:17;0.10;99.90
16823;DHT22;8528;49.976;11.858;2022-12-15T01:48:57;0.10;99.90
16823;DHT22;8528;49.976;11.858;2022-12-15T01:51:33;0.00;99.90
16823;DHT22;8528;49.976;11.858;2022-12-15T01:56:36;0.10;99.90
16823;DHT22;8528;49.976;11.858;2022-12-15T01:59:18;0.10;99.90
16823;DHT22;8528;49.976;11.858;2022-12-15T02:01:49;0.10;99.90
16823;DHT22;8528;49.976;11.858;2022-12-15T02:04:18;0.00;99.90
16823;DHT22;8528;49.976;11.858;2022-12-15T02:06:46;0.00;99.90
16823;DHT22;8528;49.976;11.858;2022-12-15T02:09:16;0.00;99.90
16823;DHT22;8528;49.976;11.858;2022-12-15T02:20:46;0.00;99.90
16823;DHT22;8528;49.976;11.858;2022-12-15T02:24:00;0.00;99.90
16823;DHT22;8528;49.976;11.858;2022-12-15T02:32:09;0.00;99.90
16823;DHT22;8528;49.976;11.858;2022-12-15T02:35:01;0.00;99.90
16823;DHT22;8528;49.976;11.858;2022-12-15T02:37:35;0.00;99.90
16823;DHT22;8528;49.976;11.858;2022-12-15T02:40:04;0.00;99.90
16823;DHT22;8528;49.976;11.858;2022-12-15T02:42:32;0.00;99.90
16823;DHT22;8528;49.976;11.858;2022-12-15T02:45:06;0.00;99.90
16823;DHT22;8528;49.976;11.858;2022-12-15T03:03:51;0.00;99.90
16823;DHT22;8528;49.976;11.858;2022-12-15T03:06:18;0.00;99.90
16823;DHT22;8528;49.976;11.858;2022-12-15T03:08:48;0.00;99.90
16823;DHT22;8528;49.976;11.858;2022-12-15T03:11:15;0.00;99.90
16823;DHT22;8528;49.976;11.858;2022-12-15T03:13:42;-0.10;99.90
16823;DHT22;8528;49.976;11.858;2022-12-15T03:16:09;-0.10;99.90
16823;DHT22;8528;49.976;11.858;2022-12-15T03:18:36;0.00;99.90
16823;DHT22;8528;49.976;11.858;2022-12-15T03:21:03;0.00;99.90
16823;DHT22;8528;49.976;11.858;2022-12-15T03:23:30;-0.10;99.90
16823;DHT22;8528;49.976;11.858;2022-12-15T03:26:11;-0.10;99.90
16823;DHT22;8528;49.976;11.858;2022-12-15T03:28:41;0.00;99.90
16823;DHT22;8528;49.976;11.858;2022-12-15T03:31:16;0.00;99.90
16823;DHT22;8528;49.976;11.858;2022-12-15T03:33:43;0.00;99.90
16823;DHT22;8528;49.976;11.858;2022-12-15T03:36:09;-0.10;99.90
16823;DHT22;8528;49.976;11.858;2022-12-15T03:38:39;-0.10;99.90
16823;DHT22;8528;49.976;11.858;2022-12-15T03:41:06;0.00;99.90
16823;DHT22;8528;49.976;11.858;2022-12-15T03:43:33;-0.10;99.90
16823;DHT22;8528;49.976;11.858;2022-12-15T03:46:05;-0.10;99.90
16823;DHT22;8528;49.976;11.858;2022-12-15T03:48:32;-0.10;99.90
16823;DHT22;8528;49.976;11.858;2022-12-15T03:50:59;0.00;99.90
16823;DHT22;8528;49.976;11.858;2022-12-15T03:53:26;-0.10;99.90
16823;DHT22;8528;49.976;11.858;2022-12-15T03:55:53;-0.10;99.90
16823;DHT22;8528;49.976;11.858;2022-12-15T03:58:20;-0.10;99.90
16823;DHT22;8528;49.976;11.858;2022-12-15T04:00:47;-0.10;99.90
16823;DHT22;8528;49.976;11.858;2022-12-15T04:03:14;-0.10;99.90
16823;DHT22;8528;49.976;11.858;2022-12-15T04:05:44;-0.10;99.90
16823;DHT22;8528;49.976;11.858;2022-12-15T04:08:11;-0.10;99.90
16823;DHT22;8528;49.976;11.858;2022-12-15T04:10:41;-0.10;99.90
16823;DHT22;8528;49.976;11.858;2022-12-15T04:13:10;-0.10;99.90
16823;DHT22;8528;49.976;11.858;2022-12-15T04:15:38;-0.10;99.90
16823;DHT22;8528;49.976;11.858;2022-12-15T04:18:09;-0.10;99.90
16823;DHT22;8528;49.976;11.858;2022-12-15T04:20:39;-0.10;99.90
16823;DHT22;8528;49.976;11.858;2022-12-15T04:23:06;-0.10;99.90
16823;DHT22;8528;49.976;11.858;2022-12-15T04:25:34;-0.10;99.90
16823;DHT22;8528;49.976;11.858;2022-12-15T04:28:23;-0.10;99.90
16823;DHT22;8528;49.976;11.858;2022-12-15T04:31:14;-0.10;99.90
16823;DHT22;8528;49.976;11.858;2022-12-15T04:34:07;-0.10;99.90
16823;DHT22;8528;49.976;11.858;2022-12-15T04:36:55;-0.10;99.90
16823;DHT22;8528;49.976;11.858;2022-12-15T04:39:47;-0.10;99.90
16823;DHT22;8528;49.976;11.858;2022-12-15T04:42:40;-0.10;99.90
16823;DHT22;8528;49.976;11.858;2022-12-15T04:45:36;-0.10;99.90
16823;DHT22;8528;49.976;11.858;2022-12-15T04:48:26;-0.10;99.90
16823;DHT22;8528;49.976;11.858;2022-12-15T04:51:11;-0.10;99.90
16823;DHT22;8528;49.976;11.858;2022-12-15T04:53:56;-0.10;99.90
16823;DHT22;8528;49.976;11.858;2022-12-15T04:56:41;-0.10;99.90
16823;DHT22;8528;49.976;11.858;2022-12-15T04:59:27;-0.10;99.90
16823;DHT22;8528;49.976;11.858;2022-12-15T05:02:12;-0.10;99.90
16823;DHT22;8528;49.976;11.858;2022-12-15T05:04:58;-0.10;99.90
16823;DHT22;8528;49.976;11.858;2022-12-15T05:07:43;-0.10;99.90
16823;DHT22;8528;49.976;11.858;2022-12-15T05:10:31;-0.10;99.90
16823;DHT22;8528;49.976;11.858;2022-12-15T05:13:19;-0.10;99.90
16823;DHT22;8528;49.976;11.858;2022-12-15T05:16:07;-0.20;99.90
16823;DHT22;8528;49.976;11.858;2022-12-15T05:18:53;-0.10;99.90
16823;DHT22;8528;49.976;11.858;2022-12-15T05:21:42;-0.10;99.90
16823;DHT22;8528;49.976;11.858;2022-12-15T05:24:31;-0.20;99.90
16823;DHT22;8528;49.976;11.858;2022-12-15T05:27:20;-0.10;99.90
16823;DHT22;8528;49.976;11.858;2022-12-15T05:30:07;-0.10;99.90
16823;DHT22;8528;49.976;11.858;2022-12-15T05:32:52;-0.20;99.90
16823;DHT22;8528;49.976;11.858;2022-12-15T05:35:19;-0.20;99.90
16823;DHT22;8528;49.976;11.858;2022-12-15T05:37:46;-0.20;99.90
16823;DHT22;8528;49.976;11.858;2022-12-15T05:40:13;-0.20;99.90
16823;DHT22;8528;49.976;11.858;2022-12-15T05:42:40;-0.10;99.90
16823;DHT22;8528;49.976;11.858;2022-12-15T05:45:07;-0.20;99.90
16823;DHT22;8528;49.976;11.858;2022-12-15T05:47:36;-0.20;99.90
16823;DHT22;8528;49.976;11.858;2022-12-15T05:50:02;-0.10;99.90
16823;DHT22;8528;49.976;11.858;2022-12-15T05:52:32;-0.20;99.90
16823;DHT22;8528;49.976;11.858;2022-12-15T05:54:59;-0.20;99.90
16823;DHT22;8528;49.976;11.858;2022-12-15T05:57:26;-0.10;99.90
16823;DHT22;8528;49.976;11.858;2022-12-15T05:59:59;-0.20;99.90
16823;DHT22;8528;49.976;11.858;2022-12-15T06:02:27;-0.20;99.90
16823;DHT22;8528;49.976;11.858;2022-12-15T06:04:54;-0.20;99.90
16823;DHT22;8528;49.976;11.858;2022-12-15T06:07:22;-0.20;99.90
16823;DHT22;8528;49.976;11.858;2022-12-15T06:09:48;-0.20;99.90
16823;DHT22;8528;49.976;11.858;2022-12-15T06:12:24;-0.20;99.90
16823;DHT22;8528;49.976;11.858;2022-12-15T06:14:51;-0.20;99.90
16823;DHT22;8528;49.976;11.858;2022-12-15T06:17:21;-0.20;99.90
16823;DHT22;8528;49.976;11.858;2022-12-15T06:19:53;-0.20;99.90
16823;DHT22;8528;49.976;11.858;2022-12-15T06:22:20;-0.20;99.90
16823;DHT22;8528;49.976;11.858;2022-12-15T06:24:47;-0.20;99.90
16823;DHT22;8528;49.976;11.858;2022-12-15T06:27:14;-0.20;99.90
16823;DHT22;8528;49.976;11.858;2022-12-15T06:29:41;-0.20;99.90
16823;DHT22;8528;49.976;11.858;2022-12-15T06:32:10;-0.20;99.90
16823;DHT22;8528;49.976;11.858;2022-12-15T06:34:37;-0.20;99.90
16823;DHT22;8528;49.976;11.858;2022-12-15T06:37:06;-0.20;99.90
16823;DHT22;8528;49.976;11.858;2022-12-15T06:39:33;-0.20;99.90
16823;DHT22;8528;49.976;11.858;2022-12-15T06:42:00;-0.20;99.90
16823;DHT22;8528;49.976;11.858;2022-12-15T06:44:27;-0.20;99.90
16823;DHT22;8528;49.976;11.858;2022-12-15T06:46:54;-0.20;99.90
16823;DHT22;8528;49.976;11.858;2022-12-15T06:49:21;-0.20;99.90
16823;DHT22;8528;49.976;11.858;2022-12-15T06:51:48;-0.20;99.90
16823;DHT22;8528;49.976;11.858;2022-12-15T06:54:15;-0.20;99.90
16823;DHT22;8528;49.976;11.858;2022-12-15T06:56:42;-0.20;99.90
16823;DHT22;8528;49.976;11.858;2022-12-15T06:59:12;-0.20;99.90
16823;DHT22;8528;49.976;11.858;2022-12-15T07:01:41;-0.20;99.90
16823;DHT22;8528;49.976;11.858;2022-12-15T07:04:09;-0.20;99.90
16823;DHT22;8528;49.976;11.858;2022-12-15T07:06:40;-0.20;99.90
16823;DHT22;8528;49.976;11.858;2022-12-15T07:09:12;-0.20;99.90
16823;DHT22;8528;49.976;11.858;2022-12-15T07:11:48;-0.20;99.90
16823;DHT22;8528;49.976;11.858;2022-12-15T07:14:17;-0.20;99.90
16823;DHT22;8528;49.976;11.858;2022-12-15T07:17:03;-0.20;99.90
16823;DHT22;8528;49.976;11.858;2022-12-15T07:19:30;-0.20;99.90
16823;DHT22;8528;49.976;11.858;2022-12-15T07:21:57;-0.20;99.90
16823;DHT22;8528;49.976;11.858;2022-12-15T07:24:25;-0.20;99.90
16823;DHT22;8528;49.976;11.858;2022-12-15T07:26:52;-0.20;99.90
16823;DHT22;8528;49.976;11.858;2022-12-15T07:29:19;-0.20;99.90
16823;DHT22;8528;49.976;11.858;2022-12-15T07:31:49;-0.20;99.90
16823;DHT22;8528;49.976;11.858;2022-12-15T07:34:16;-0.20;99.90
16823;DHT22;8528;49.976;11.858;2022-12-15T07:36:43;-0.30;99.90
16823;DHT22;8528;49.976;11.858;2022-12-15T07:39:17;-0.30;99.90
16823;DHT22;8528;49.976;11.858;2022-12-15T07:41:44;-0.30;99.90
16823;DHT22;8528;49.976;11.858;2022-12-15T07:44:15;-0.30;99.90
16823;DHT22;8528;49.976;11.858;2022-12-15T07:46:45;-0.30;99.90
16823;DHT22;8528;49.976;11.858;2022-12-15T07:49:15;-0.20;99.90
16823;DHT22;8528;49.976;11.858;2022-12-15T07:51:43;-0.30;99.90
16823;DHT22;8528;49.976;11.858;2022-12-15T07:54:16;-0.30;99.90
16823;DHT22;8528;49.976;11.858;2022-12-15T07:56:43;-0.30;99.90
16823;DHT22;8528;49.976;11.858;2022-12-15T07:59:15;-0.30;99.90
16823;DHT22;8528;49.976;11.858;2022-12-15T08:01:42;-0.30;99.90
16823;DHT22;8528;49.976;11.858;2022-12-15T08:04:12;-0.30;99.90
16823;DHT22;8528;49.976;11.858;2022-12-15T08:06:39;-0.30;99.90
16823;DHT22;8528;49.976;11.858;2022-12-15T08:09:06;-0.30;99.90
16823;DHT22;8528;49.976;11.858;2022-12-15T08:11:33;-0.30;99.90
16823;DHT22;8528;49.976;11.858;2022-12-15T08:14:01;-0.30;99.90
16823;DHT22;8528;49.976;11.858;2022-12-15T08:16:33;-0.30;99.90
16823;DHT22;8528;49.976;11.858;2022-12-15T08:19:03;-0.30;99.90
16823;DHT22;8528;49.976;11.858;2022-12-15T08:21:32;-0.30;99.90
16823;DHT22;8528;49.976;11.858;2022-12-15T08:24:20;-0.30;99.90
16823;DHT22;8528;49.976;11.858;2022-12-15T08:26:46;-0.30;99.90
16823;DHT22;8528;49.976;11.858;2022-12-15T08:29:16;-0.30;99.90
16823;DHT22;8528;49.976;11.858;2022-12-15T08:32:03;-0.30;99.90
16823;DHT22;8528;49.976;11.858;2022-12-15T08:34:31;-0.30;99.90
16823;DHT22;8528;49.976;11.858;2022-12-15T08:37:19;-0.30;99.90
16823;DHT22;8528;49.976;11.858;2022-12-15T08:39:46;-0.30;99.90
16823;DHT22;8528;49.976;11.858;2022-12-15T08:42:13;-0.30;99.90
16823;DHT22;8528;49.976;11.858;2022-12-15T08:44:47;-0.30;99.90
16823;DHT22;8528;49.976;11.858;2022-12-15T08:47:18;-0.30;99.90
16823;DHT22;8528;49.976;11.858;2022-12-15T08:49:51;-0.30;99.90
16823;DHT22;8528;49.976;11.858;2022-12-15T08:52:21;-0.30;99.90
16823;DHT22;8528;49.976;11.858;2022-12-15T08:54:48;-0.30;99.90
16823;DHT22;8528;49.976;11.858;2022-12-15T08:57:15;-0.30;99.90
16823;DHT22;8528;49.976;11.858;2022-12-15T08:59:42;-0.40;99.90
16823;DHT22;8528;49.976;11.858;2022-12-15T09:02:11;-0.40;99.90
16823;DHT22;8528;49.976;11.858;2022-12-15T09:04:39;-0.40;99.90
16823;DHT22;8528;49.976;11.858;2022-12-15T09:07:06;-0.40;99.90
16823;DHT22;8528;49.976;11.858;2022-12-15T09:09:37;-0.40;99.90
16823;DHT22;8528;49.976;11.858;2022-12-15T09:12:05;-0.40;99.90
16823;DHT22;8528;49.976;11.858;2022-12-15T09:14:34;-0.40;99.90
16823;DHT22;8528;49.976;11.858;2022-12-15T09:17:04;-0.40;99.90
16823;DHT22;8528;49.976;11.858;2022-12-15T09:19:31;-0.40;99.90
16823;DHT22;8528;49.976;11.858;2022-12-15T09:21:58;-0.40;99.90
16823;DHT22;8528;49.976;11.858;2022-12-15T09:24:34;-0.40;99.90
16823;DHT22;8528;49.976;11.858;2022-12-15T09:27:04;-0.40;99.90
16823;DHT22;8528;49.976;11.858;2022-12-15T09:29:32;-0.40;99.90
16823;DHT22;8528;49.976;11.858;2022-12-15T09:31:59;-0.30;99.90
16823;DHT22;8528;49.976;11.858;2022-12-15T09:34:26;-0.40;99.90
16823;DHT22;8528;49.976;11.858;2022-12-15T09:37:07;-0.40;99.90
16823;DHT22;8528;49.976;11.858;2022-12-15T09:39:34;-0.40;99.90
16823;DHT22;8528;49.976;11.858;2022-12-15T09:42:01;-0.40;99.90
16823;DHT22;8528;49.976;11.858;2022-12-15T09:44:30;-0.40;99.90
16823;DHT22;8528;49.976;11.858;2022-12-15T09:47:31;-0.40;99.90
16823;DHT22;8528;49.976;11.858;2022-12-15T09:50:04;-0.40;99.90
16823;DHT22;8528;49.976;11.858;2022-12-15T09:52:48;-0.40;99.90
16823;DHT22;8528;49.976;11.858;2022-12-15T09:55:32;-0.40;99.90
16823;DHT22;8528;49.976;11.858;2022-12-15T09:58:07;-0.40;99.90
16823;DHT22;8528;49.976;11.858;2022-12-15T10:06:57;-0.40;99.90
16823;DHT22;8528;49.976;11.858;2022-12-15T10:09:43;-0.40;99.90
16823;DHT22;8528;49.976;11.858;2022-12-15T10:12:23;-0.40;99.90
16823;DHT22;8528;49.976;11.858;2022-12-15T10:17:35;-0.40;99.90
16823;DHT22;8528;49.976;11.858;2022-12-15T10:20:27;-0.30;99.90
16823;DHT22;8528;49.976;11.858;2022-12-15T10:23:08;-0.30;99.90
16823;DHT22;8528;49.976;11.858;2022-12-15T10:25:37;-0.30;99.90
16823;DHT22;8528;49.976;11.858;2022-12-15T10:31:17;-0.30;99.90
16823;DHT22;8528;49.976;11.858;2022-12-15T10:33:48;-0.30;99.90
16823;DHT22;8528;49.976;11.858;2022-12-15T10:36:17;-0.30;99.90
16823;DHT22;8528;49.976;11.858;2022-12-15T10:38:45;-0.30;99.90
16823;DHT22;8528;49.976;11.858;2022-12-15T10:41:23;-0.30;99.90
16823;DHT22;8528;49.976;11.858;2022-12-15T10:43:56;-0.20;99.90
16823;DHT22;8528;49.976;11.858;2022-12-15T10:46:28;-0.20;99.90
16823;DHT22;8528;49.976;11.858;2022-12-15T10:49:20;-0.20;99.90
16823;DHT22;8528;49.976;11.858;2022-12-15T10:51:56;-0.20;99.90
16823;DHT22;8528;49.976;11.858;2022-12-15T10:54:35;-0.20;99.90
16823;DHT22;8528;49.976;11.858;2022-12-15T10:57:34;-0.20;99.90
16823;DHT22;8528;49.976;11.858;2022-12-15T11:02:48;-0.10;99.90
16823;DHT22;8528;49.976;11.858;2022-12-15T11:05:19;-0.10;99.90
16823;DHT22;8528;49.976;11.858;2022-12-15T11:07:49;-0.10;99.90
16823;DHT22;8528;49.976;11.858;2022-12-15T11:13:14;-0.10;99.90
16823;DHT22;8528;49.976;11.858;2022-12-15T11:18:28;-0.10;99.90
16823;DHT22;8528;49.976;11.858;2022-12-15T11:21:23;0.00;99.90
16823;DHT22;8528;49.976;11.858;2022-12-15T11:24:12;0.00;99.90
16823;DHT22;8528;49.976;11.858;2022-12-15T11:27:11;0.00;99.90
16823;DHT22;8528;49.976;11.858;2022-12-15T11:32:33;0.10;99.90
16823;DHT22;8528;49.976;11.858;2022-12-15T11:35:00;0.10;99.90
16823;DHT22;8528;49.976;11.858;2022-12-15T11:37:51;0.10;99.90
16823;DHT22;8528;49.976;11.858;2022-12-15T11:45:44;0.10;99.90
16823;DHT22;8528;49.976;11.858;2022-12-15T11:48:29;0.10;99.90
16823;DHT22;8528;49.976;11.858;2022-12-15T11:51:05;0.20;99.90
16823;DHT22;8528;49.976;11.858;2022-12-15T11:54:05;0.20;99.90
16823;DHT22;8528;49.976;11.858;2022-12-15T12:02:51;0.20;99.90
16823;DHT22;8528;49.976;11.858;2022-12-15T12:11:13;0.20;99.90
16823;DHT22;8528;49.976;11.858;2022-12-15T12:16:59;0.30;99.90
16823;DHT22;8528;49.976;11.858;2022-12-15T12:19:57;0.30;99.90
16823;DHT22;8528;49.976;11.858;2022-12-15T12:22:39;0.30;99.90
16823;DHT22;8528;49.976;11.858;2022-12-15T12:25:20;0.30;99.90
16823;DHT22;8528;49.976;11.858;2022-12-15T12:27:59;0.40;99.90
16823;DHT22;8528;49.976;11.858;2022-12-15T12:30:34;0.40;99.90
16823;DHT22;8528;49.976;11.858;2022-12-15T12:33:38;0.40;99.90
16823;DHT22;8528;49.976;11.858;2022-12-15T12:36:11;0.40;99.90
16823;DHT22;8528;49.976;11.858;2022-12-15T12:38:45;0.40;99.90
16823;DHT22;8528;49.976;11.858;2022-12-15T12:41:54;0.40;99.90
16823;DHT22;8528;49.976;11.858;2022-12-15T12:44:29;0.50;99.90
16823;DHT22;8528;49.976;11.858;2022-12-15T12:47:05;0.50;99.90
16823;DHT22;8528;49.976;11.858;2022-12-15T12:49:50;0.50;99.90
16823;DHT22;8528;49.976;11.858;2022-12-15T12:52:41;0.60;99.90
16823;DHT22;8528;49.976;11.858;2022-12-15T12:55:38;0.60;99.90
16823;DHT22;8528;49.976;11.858;2022-12-15T12:58:31;0.70;99.90
16823;DHT22;8528;49.976;11.858;2022-12-15T13:01:29;0.70;99.90
16823;DHT22;8528;49.976;11.858;2022-12-15T13:04:11;0.80;99.90
16823;DHT22;8528;49.976;11.858;2022-12-15T13:11:58;0.90;99.90
16823;DHT22;8528;49.976;11.858;2022-12-15T13:14:49;0.90;99.90
16823;DHT22;8528;49.976;11.858;2022-12-15T13:17:30;1.00;99.90
16823;DHT22;8528;49.976;11.858;2022-12-15T13:22:36;1.10;99.90
16823;DHT22;8528;49.976;11.858;2022-12-15T13:27:57;1.10;99.90
16823;DHT22;8528;49.976;11.858;2022-12-15T13:30:31;1.20;99.90
16823;DHT22;8528;49.976;11.858;2022-12-15T13:33:17;1.20;99.90
16823;DHT22;8528;49.976;11.858;2022-12-15T13:35:50;1.20;99.90
16823;DHT22;8528;49.976;11.858;2022-12-15T13:38:17;1.30;99.90
16823;DHT22;8528;49.976;11.858;2022-12-15T13:40:49;1.30;99.90
16823;DHT22;8528;49.976;11.858;2022-12-15T13:45:58;1.30;99.90
16823;DHT22;8528;49.976;11.858;2022-12-15T13:48:34;1.30;99.90
16823;DHT22;8528;49.976;11.858;2022-12-15T13:51:37;1.40;99.90
16823;DHT22;8528;49.976;11.858;2022-12-15T13:56:46;1.40;99.90
16823;DHT22;8528;49.976;11.858;2022-12-15T14:02:23;1.40;99.90
16823;DHT22;8528;49.976;11.858;2022-12-15T14:08:11;1.40;99.90
16823;DHT22;8528;49.976;11.858;2022-12-15T14:10:54;1.40;99.90
16823;DHT22;8528;49.976;11.858;2022-12-15T14:13:48;1.40;99.90
16823;DHT22;8528;49.976;11.858;2022-12-15T14:16:25;1.50;99.90
16823;DHT22;8528;49.976;11.858;2022-12-15T14:19:12;1.40;99.90
16823;DHT22;8528;49.976;11.858;2022-12-15T14:21:48;1.40;99.90
16823;DHT22;8528;49.976;11.858;2022-12-15T14:27:25;1.40;99.90
16823;DHT22;8528;49.976;11.858;2022-12-15T14:32:35;1.50;99.90
16823;DHT22;8528;49.976;11.858;2022-12-15T14:35:12;1.40;99.90
16823;DHT22;8528;49.976;11.858;2022-12-15T14:37:43;1.40;99.90
16823;DHT22;8528;49.976;11.858;2022-12-15T14:40:15;1.40;99.90
16823;DHT22;8528;49.976;11.858;2022-12-15T14:42:46;1.40;99.90
16823;DHT22;8528;49.976;11.858;2022-12-15T14:45:36;1.40;99.90
16823;DHT22;8528;49.976;11.858;2022-12-15T14:48:08;1.40;99.90
16823;DHT22;8528;49.976;11.858;2022-12-15T14:50:59;1.40;99.90
16823;DHT22;8528;49.976;11.858;2022-12-15T14:53:33;1.40;99.90
16823;DHT22;8528;49.976;11.858;2022-12-15T14:59:03;1.40;99.90
16823;DHT22;8528;49.976;11.858;2022-12-15T15:02:11;1.40;99.90
16823;DHT22;8528;49.976;11.858;2022-12-15T15:04:58;1.40;99.90
16823;DHT22;8528;49.976;11.858;2022-12-15T15:07:26;1.30;99.90
16823;DHT22;8528;49.976;11.858;2022-12-15T15:09:54;1.30;99.90
16823;DHT22;8528;49.976;11.858;2022-12-15T15:12:39;1.30;99.90
16823;DHT22;8528;49.976;11.858;2022-12-15T15:15:10;1.30;99.90
16823;DHT22;8528;49.976;11.858;2022-12-15T15:17:46;1.30;99.90
16823;DHT22;8528;49.976;11.858;2022-12-15T15:20:21;1.30;99.90
16823;DHT22;8528;49.976;11.858;2022-12-15T15:23:20;1.20;99.90
16823;DHT22;8528;49.976;11.858;2022-12-15T15:26:08;1.30;99.90
16823;DHT22;8528;49.976;11.858;2022-12-15T15:28:42;1.20;99.90
16823;DHT22;8528;49.976;11.858;2022-12-15T15:31:36;1.20;99.90
16823;DHT22;8528;49.976;11.858;2022-12-15T15:34:08;1.20;99.90
16823;DHT22;8528;49.976;11.858;2022-12-15T15:36:36;1.20;99.90
16823;DHT22;8528;49.976;11.858;2022-12-15T15:39:14;1.10;99.90
16823;DHT22;8528;49.976;11.858;2022-12-15T15:41:44;1.10;99.90
16823;DHT22;8528;49.976;11.858;2022-12-15T15:44:18;1.10;99.90
16823;DHT22;8528;49.976;11.858;2022-12-15T15:46:48;1.10;99.90
16823;DHT22;8528;49.976;11.858;2022-12-15T15:49:18;1.10;99.90
16823;DHT22;8528;49.976;11.858;2022-12-15T15:51:49;1.10;99.90
16823;DHT22;8528;49.976;11.858;2022-12-15T15:54:22;1.00;99.90
16823;DHT22;8528;49.976;11.858;2022-12-15T15:56:49;1.00;99.90
16823;DHT22;8528;49.976;11.858;2022-12-15T15:59:19;1.00;99.90
16823;DHT22;8528;49.976;11.858;2022-12-15T16:01:51;1.00;99.90
16823;DHT22;8528;49.976;11.858;2022-12-15T16:04:24;1.00;99.90
16823;DHT22;8528;49.976;11.858;2022-12-15T16:06:52;0.90;99.90
16823;DHT22;8528;49.976;11.858;2022-12-15T16:09:19;0.90;99.90
16823;DHT22;8528;49.976;11.858;2022-12-15T16:11:46;1.00;99.90
16823;DHT22;8528;49.976;11.858;2022-12-15T16:14:15;0.90;99.90
16823;DHT22;8528;49.976;11.858;2022-12-15T16:16:42;0.90;99.90
16823;DHT22;8528;49.976;11.858;2022-12-15T16:19:09;0.90;99.90
16823;DHT22;8528;49.976;11.858;2022-12-15T16:21:41;0.90;99.90
16823;DHT22;8528;49.976;11.858;2022-12-15T16:24:16;0.80;99.90
16823;DHT22;8528;49.976;11.858;2022-12-15T16:26:47;0.90;99.90
16823;DHT22;8528;49.976;11.858;2022-12-15T16:29:19;0.90;99.90
16823;DHT22;8528;49.976;11.858;2022-12-15T16:31:46;0.80;99.90
16823;DHT22;8528;49.976;11.858;2022-12-15T16:34:14;0.80;99.90
16823;DHT22;8528;49.976;11.858;2022-12-15T16:36:49;0.80;99.90
16823;DHT22;8528;49.976;11.858;2022-12-15T16:39:33;0.80;99.90
16823;DHT22;8528;49.976;11.858;2022-12-15T16:42:01;0.80;99.90
16823;DHT22;8528;49.976;11.858;2022-12-15T16:44:29;0.70;99.90
16823;DHT22;8528;49.976;11.858;2022-12-15T16:46:56;0.80;99.90
16823;DHT22;8528;49.976;11.858;2022-12-15T16:49:24;0.80;99.90
16823;DHT22;8528;49.976;11.858;2022-12-15T16:52:03;0.80;99.90
16823;DHT22;8528;49.976;11.858;2022-12-15T16:54:30;0.80;99.90
16823;DHT22;8528;49.976;11.858;2022-12-15T16:56:58;0.80;99.90
16823;DHT22;8528;49.976;11.858;2022-12-15T16:59:26;0.70;99.90
16823;DHT22;8528;49.976;11.858;2022-12-15T17:02:26;0.80;99.90
16823;DHT22;8528;49.976;11.858;2022-12-15T17:04:53;0.70;99.90
16823;DHT22;8528;49.976;11.858;2022-12-15T17:07:26;0.70;99.90
16823;DHT22;8528;49.976;11.858;2022-12-15T17:09:56;0.80;99.90
16823;DHT22;8528;49.976;11.858;2022-12-15T17:12:23;0.70;99.90
16823;DHT22;8528;49.976;11.858;2022-12-15T17:14:50;0.80;99.90
16823;DHT22;8528;49.976;11.858;2022-12-15T17:17:18;0.70;99.90
16823;DHT22;8528;49.976;11.858;2022-12-15T17:19:45;0.70;99.90
16823;DHT22;8528;49.976;11.858;2022-12-15T17:22:35;0.70;99.90
16823;DHT22;8528;49.976;11.858;2022-12-15T17:25:02;0.70;99.90
16823;DHT22;8528;49.976;11.858;2022-12-15T17:27:29;0.80;99.90
16823;DHT22;8528;49.976;11.858;2022-12-15T17:29:58;0.70;99.90
16823;DHT22;8528;49.976;11.858;2022-12-15T17:32:26;0.70;99.90
16823;DHT22;8528;49.976;11.858;2022-12-15T17:35:00;0.70;99.90
16823;DHT22;8528;49.976;11.858;2022-12-15T17:37:29;0.80;99.90
16823;DHT22;8528;49.976;11.858;2022-12-15T17:40:02;0.70;99.90
16823;DHT22;8528;49.976;11.858;2022-12-15T17:42:29;0.70;99.90
16823;DHT22;8528;49.976;11.858;2022-12-15T17:44:56;0.70;99.90
16823;DHT22;8528;49.976;11.858;2022-12-15T17:47:22;0.70;99.90
16823;DHT22;8528;49.976;11.858;2022-12-15T17:49:50;0.70;99.90
16823;DHT22;8528;49.976;11.858;2022-12-15T17:52:28;0.70;99.90
16823;DHT22;8528;49.976;11.858;2022-12-15T17:55:01;0.70;99.90
16823;DHT22;8528;49.976;11.858;2022-12-15T17:57:28;0.70;99.90
16823;DHT22;8528;49.976;11.858;2022-12-15T18:00:13;0.70;99.90
16823;DHT22;8528;49.976;11.858;2022-12-15T18:02:40;0.70;99.90
16823;DHT22;8528;49.976;11.858;2022-12-15T18:05:07;0.80;99.90
16823;DHT22;8528;49.976;11.858;2022-12-15T18:07:37;0.70;99.90
16823;DHT22;8528;49.976;11.858;2022-12-15T18:10:04;0.70;99.90
16823;DHT22;8528;49.976;11.858;2022-12-15T18:12:32;0.80;99.90
16823;DHT22;8528;49.976;11.858;2022-12-15T18:14:59;0.80;99.90
16823;DHT22;8528;49.976;11.858;2022-12-15T18:17:26;0.80;99.90